sensor_id;sensor_type;location;lat;lon;timestamp;temperature;humidity
11764;DHT22;5939;56.522;14.950;2023-03-01T00:01:19;3.20;99.90
11764;DHT22;5939;56.522;14.950;2023-03-01T00:03:46;3.20;99.90
11764;DHT22;5939;56.522;14.950;2023-03-01T00:06:12;3.20;99.90
11764;DHT22;5939;56.522;14.950;2023-03-01T00:08:38;3.20;99.90
11764;DHT22;5939;56.522;14.950;2023-03-01T00:13:34;3.10;99.90
11764;DHT22;5939;56.522;14.950;2023-03-01T00:16:05;3.10;99.90
11764;DHT22;5939;56.522;14.950;2023-03-01T00:18:31;3.10;99.90
11764;DHT22;5939;56.522;14.950;2023-03-01T00:20:57;3.10;99.90
11764;DHT22;5939;56.522;14.950;2023-03-01T00:23:23;3.10;99.90
11764;DHT22;5939;56.522;14.950;2023-03-01T00:25:49;3.10;99.90
11764;DHT22;5939;56.522;14.950;2023-03-01T00:28:14;3.10;99.90
11764;DHT22;5939;56.522;14.950;2023-03-01T00:30:40;3.10;99.90
11764;DHT22;5939;56.522;14.950;2023-03-01T00:33:06;3.10;99.90
11764;DHT22;5939;56.522;14.950;2023-03-01T00:35:32;3.00;99.90
11764;DHT22;5939;56.522;14.950;2023-03-01T00:37:58;3.00;99.90
11764;DHT22;5939;56.522;14.950;2023-03-01T00:40:26;3.00;99.90
11764;DHT22;5939;56.522;14.950;2023-03-01T00:42:51;3.00;99.90
11764;DHT22;5939;56.522;14.950;2023-03-01T00:45:17;3.00;99.90
11764;DHT22;5939;56.522;14.950;2023-03-01T00:47:43;3.00;99.90
11764;DHT22;5939;56.522;14.950;2023-03-01T00:50:09;3.00;99.90
11764;DHT22;5939;56.522;14.950;2023-03-01T00:52:35;3.00;99.90
11764;DHT22;5939;56.522;14.950;2023-03-01T00:55:01;3.00;99.90
11764;DHT22;5939;56.522;14.950;2023-03-01T00:57:27;2.90;99.90
11764;DHT22;5939;56.522;14.950;2023-03-01T00:59:52;2.90;99.90
11764;DHT22;5939;56.522;14.950;2023-03-01T01:02:19;3.10;99.90
11764;DHT22;5939;56.522;14.950;2023-03-01T01:04:45;2.90;99.90
11764;DHT22;5939;56.522;14.950;2023-03-01T01:07:11;2.90;99.90
11764;DHT22;5939;56.522;14.950;2023-03-01T01:09:37;2.90;99.90
11764;DHT22;5939;56.522;14.950;2023-03-01T01:12:03;2.90;99.90
11764;DHT22;5939;56.522;14.950;2023-03-01T01:14:29;2.90;99.90
11764;DHT22;5939;56.522;14.950;2023-03-01T01:16:55;2.80;99.90
11764;DHT22;5939;56.522;14.950;2023-03-01T01:19:21;2.80;99.90
11764;DHT22;5939;56.522;14.950;2023-03-01T01:21:48;2.90;99.90
11764;DHT22;5939;56.522;14.950;2023-03-01T01:24:14;2.80;99.90
11764;DHT22;5939;56.522;14.950;2023-03-01T01:26:40;2.80;99.90
11764;DHT22;5939;56.522;14.950;2023-03-01T01:29:06;2.80;99.90
11764;DHT22;5939;56.522;14.950;2023-03-01T01:31:33;2.80;99.90
11764;DHT22;5939;56.522;14.950;2023-03-01T01:34:01;2.80;99.90
11764;DHT22;5939;56.522;14.950;2023-03-01T01:36:27;2.80;99.90
11764;DHT22;5939;56.522;14.950;2023-03-01T01:38:53;2.80;99.90
11764;DHT22;5939;56.522;14.950;2023-03-01T01:41:20;2.80;99.90
11764;DHT22;5939;56.522;14.950;2023-03-01T01:44:08;2.80;99.90
11764;DHT22;5939;56.522;14.950;2023-03-01T01:46:36;2.70;99.90
11764;DHT22;5939;56.522;14.950;2023-03-01T01:49:14;2.70;99.90
11764;DHT22;5939;56.522;14.950;2023-03-01T01:51:44;2.70;99.90
11764;DHT22;5939;56.522;14.950;2023-03-01T01:54:28;2.70;99.90
11764;DHT22;5939;56.522;14.950;2023-03-01T01:56:58;2.70;99.90
11764;DHT22;5939;56.522;14.950;2023-03-01T01:59:27;2.70;99.90
11764;DHT22;5939;56.522;14.950;2023-03-01T02:01:54;2.70;99.90
11764;DHT22;5939;56.522;14.950;2023-03-01T02:04:20;2.70;99.90
11764;DHT22;5939;56.522;14.950;2023-03-01T02:06:58;2.70;99.90
11764;DHT22;5939;56.522;14.950;2023-03-01T02:09:25;2.70;99.90
11764;DHT22;5939;56.522;14.950;2023-03-01T02:11:52;2.60;99.90
11764;DHT22;5939;56.522;14.950;2023-03-01T02:14:18;2.60;99.90
11764;DHT22;5939;56.522;14.950;2023-03-01T02:16:44;2.60;99.90
11764;DHT22;5939;56.522;14.950;2023-03-01T02:22:27;2.60;99.90
11764;DHT22;5939;56.522;14.950;2023-03-01T02:30:27;2.50;99.90
11764;DHT22;5939;56.522;14.950;2023-03-01T02:32:56;2.60;99.90
11764;DHT22;5939;56.522;14.950;2023-03-01T02:35:35;2.60;99.90
11764;DHT22;5939;56.522;14.950;2023-03-01T02:38:03;2.50;99.90
11764;DHT22;5939;56.522;14.950;2023-03-01T02:40:33;2.50;99.90
11764;DHT22;5939;56.522;14.950;2023-03-01T02:42:59;2.50;99.90
11764;DHT22;5939;56.522;14.950;2023-03-01T02:45:26;2.50;99.90
11764;DHT22;5939;56.522;14.950;2023-03-01T02:47:56;2.50;99.90
11764;DHT22;5939;56.522;14.950;2023-03-01T02:55:28;2.50;99.90
11764;DHT22;5939;56.522;14.950;2023-03-01T02:57:54;2.40;99.90
11764;DHT22;5939;56.522;14.950;2023-03-01T03:00:28;2.40;99.90
11764;DHT22;5939;56.522;14.950;2023-03-01T03:02:55;2.40;99.90
11764;DHT22;5939;56.522;14.950;2023-03-01T03:05:32;2.40;99.90
11764;DHT22;5939;56.522;14.950;2023-03-01T03:08:00;2.40;99.90
11764;DHT22;5939;56.522;14.950;2023-03-01T03:10:32;2.40;99.90
11764;DHT22;5939;56.522;14.950;2023-03-01T03:13:01;2.40;99.90
11764;DHT22;5939;56.522;14.950;2023-03-01T03:15:27;2.30;99.90
11764;DHT22;5939;56.522;14.950;2023-03-01T03:17:55;2.30;99.90
11764;DHT22;5939;56.522;14.950;2023-03-01T03:20:25;2.30;99.90
11764;DHT22;5939;56.522;14.950;2023-03-01T03:22:53;2.30;99.90
11764;DHT22;5939;56.522;14.950;2023-03-01T03:25:20;2.30;99.90
11764;DHT22;5939;56.522;14.950;2023-03-01T03:27:47;2.30;99.90
11764;DHT22;5939;56.522;14.950;2023-03-01T03:30:18;2.30;99.90
11764;DHT22;5939;56.522;14.950;2023-03-01T03:32:46;2.30;99.90
11764;DHT22;5939;56.522;14.950;2023-03-01T03:35:25;2.20;99.90
11764;DHT22;5939;56.522;14.950;2023-03-01T03:37:52;2.20;99.90
11764;DHT22;5939;56.522;14.950;2023-03-01T03:40:29;2.20;99.90
11764;DHT22;5939;56.522;14.950;2023-03-01T03:42:54;2.20;99.90
11764;DHT22;5939;56.522;14.950;2023-03-01T03:45:20;2.20;99.90
11764;DHT22;5939;56.522;14.950;2023-03-01T03:47:46;2.20;99.90
11764;DHT22;5939;56.522;14.950;2023-03-01T03:50:14;2.20;99.90
11764;DHT22;5939;56.522;14.950;2023-03-01T03:52:41;2.20;99.90
11764;DHT22;5939;56.522;14.950;2023-03-01T03:55:10;2.10;99.90
11764;DHT22;5939;56.522;14.950;2023-03-01T03:57:42;2.20;99.90
11764;DHT22;5939;56.522;14.950;2023-03-01T04:00:11;2.20;99.90
11764;DHT22;5939;56.522;14.950;2023-03-01T04:02:43;2.10;99.90
11764;DHT22;5939;56.522;14.950;2023-03-01T04:05:10;2.10;99.90
11764;DHT22;5939;56.522;14.950;2023-03-01T04:07:37;2.10;99.90
11764;DHT22;5939;56.522;14.950;2023-03-01T04:10:11;2.10;99.90
11764;DHT22;5939;56.522;14.950;2023-03-01T04:12:36;2.10;99.90
11764;DHT22;5939;56.522;14.950;2023-03-01T04:15:04;2.10;99.90
11764;DHT22;5939;56.522;14.950;2023-03-01T04:17:42;2.10;99.90
11764;DHT22;5939;56.522;14.950;2023-03-01T04:20:11;2.00;99.90
11764;DHT22;5939;56.522;14.950;2023-03-01T04:22:37;2.00;99.90
11764;DHT22;5939;56.522;14.950;2023-03-01T04:25:03;2.00;99.90
11764;DHT22;5939;56.522;14.950;2023-03-01T04:27:32;2.00;99.90
11764;DHT22;5939;56.522;14.950;2023-03-01T04:29:58;2.00;99.90
11764;DHT22;5939;56.522;14.950;2023-03-01T04:32:24;2.00;99.90
11764;DHT22;5939;56.522;14.950;2023-03-01T04:34:49;2.00;99.90
11764;DHT22;5939;56.522;14.950;2023-03-01T04:37:15;2.00;99.90
11764;DHT22;5939;56.522;14.950;2023-03-01T04:39:41;2.00;99.90
11764;DHT22;5939;56.522;14.950;2023-03-01T04:42:20;1.90;99.90
11764;DHT22;5939;56.522;14.950;2023-03-01T04:44:46;2.00;99.90
11764;DHT22;5939;56.522;14.950;2023-03-01T04:47:12;1.90;99.90
11764;DHT22;5939;56.522;14.950;2023-03-01T04:49:38;1.90;99.90
11764;DHT22;5939;56.522;14.950;2023-03-01T04:52:04;1.90;99.90
11764;DHT22;5939;56.522;14.950;2023-03-01T04:54:33;1.90;99.90
11764;DHT22;5939;56.522;14.950;2023-03-01T04:57:00;1.90;99.90
11764;DHT22;5939;56.522;14.950;2023-03-01T04:59:26;1.90;99.90
11764;DHT22;5939;56.522;14.950;2023-03-01T05:01:53;1.90;99.90
11764;DHT22;5939;56.522;14.950;2023-03-01T05:04:23;1.90;99.90
11764;DHT22;5939;56.522;14.950;2023-03-01T05:06:50;1.80;99.90
11764;DHT22;5939;56.522;14.950;2023-03-01T05:09:16;1.90;99.90
11764;DHT22;5939;56.522;14.950;2023-03-01T05:11:41;1.80;99.90
11764;DHT22;5939;56.522;14.950;2023-03-01T05:14:08;1.80;99.90
11764;DHT22;5939;56.522;14.950;2023-03-01T05:16:35;1.80;99.90
11764;DHT22;5939;56.522;14.950;2023-03-01T05:19:02;1.80;99.90
11764;DHT22;5939;56.522;14.950;2023-03-01T05:21:37;1.80;99.90
11764;DHT22;5939;56.522;14.950;2023-03-01T05:24:23;1.80;99.90
11764;DHT22;5939;56.522;14.950;2023-03-01T05:26:50;1.80;99.90
11764;DHT22;5939;56.522;14.950;2023-03-01T05:29:18;1.80;99.90
11764;DHT22;5939;56.522;14.950;2023-03-01T05:31:57;1.70;99.90
11764;DHT22;5939;56.522;14.950;2023-03-01T05:34:28;1.70;99.90
11764;DHT22;5939;56.522;14.950;2023-03-01T05:36:55;1.70;99.90
11764;DHT22;5939;56.522;14.950;2023-03-01T05:39:21;1.70;99.90
11764;DHT22;5939;56.522;14.950;2023-03-01T05:41:51;1.70;99.90
11764;DHT22;5939;56.522;14.950;2023-03-01T05:44:17;1.70;99.90
11764;DHT22;5939;56.522;14.950;2023-03-01T05:46:42;1.70;99.90
11764;DHT22;5939;56.522;14.950;2023-03-01T05:49:08;1.70;99.90
11764;DHT22;5939;56.522;14.950;2023-03-01T05:51:34;1.70;99.90
11764;DHT22;5939;56.522;14.950;2023-03-01T05:54:00;1.70;99.90
11764;DHT22;5939;56.522;14.950;2023-03-01T05:56:25;1.70;99.90
11764;DHT22;5939;56.522;14.950;2023-03-01T05:58:51;1.70;99.90
11764;DHT22;5939;56.522;14.950;2023-03-01T06:01:16;1.70;99.90
11764;DHT22;5939;56.522;14.950;2023-03-01T06:03:42;1.70;99.90
11764;DHT22;5939;56.522;14.950;2023-03-01T06:06:08;1.70;99.90
11764;DHT22;5939;56.522;14.950;2023-03-01T06:08:33;1.70;99.90
11764;DHT22;5939;56.522;14.950;2023-03-01T06:10:59;1.70;99.90
11764;DHT22;5939;56.522;14.950;2023-03-01T06:13:25;1.60;99.90
11764;DHT22;5939;56.522;14.950;2023-03-01T06:15:51;1.60;99.90
11764;DHT22;5939;56.522;14.950;2023-03-01T06:18:17;1.60;99.90
11764;DHT22;5939;56.522;14.950;2023-03-01T06:20:42;1.60;99.90
11764;DHT22;5939;56.522;14.950;2023-03-01T06:23:08;1.60;99.90
11764;DHT22;5939;56.522;14.950;2023-03-01T06:25:34;1.60;99.90
11764;DHT22;5939;56.522;14.950;2023-03-01T06:28:00;1.60;99.90
11764;DHT22;5939;56.522;14.950;2023-03-01T06:30:26;1.60;99.90
11764;DHT22;5939;56.522;14.950;2023-03-01T06:32:52;1.60;99.90
11764;DHT22;5939;56.522;14.950;2023-03-01T06:35:18;1.60;99.90
11764;DHT22;5939;56.522;14.950;2023-03-01T06:37:45;1.60;99.90
11764;DHT22;5939;56.522;14.950;2023-03-01T06:40:11;1.60;99.90
11764;DHT22;5939;56.522;14.950;2023-03-01T06:42:39;1.60;99.90
11764;DHT22;5939;56.522;14.950;2023-03-01T06:45:06;1.60;99.90
11764;DHT22;5939;56.522;14.950;2023-03-01T06:47:33;1.60;99.90
11764;DHT22;5939;56.522;14.950;2023-03-01T06:50:00;1.60;99.90
11764;DHT22;5939;56.522;14.950;2023-03-01T06:52:26;1.60;99.90
11764;DHT22;5939;56.522;14.950;2023-03-01T06:54:51;1.60;99.90
11764;DHT22;5939;56.522;14.950;2023-03-01T06:57:17;1.60;99.90
11764;DHT22;5939;56.522;14.950;2023-03-01T06:59:43;1.60;99.90
11764;DHT22;5939;56.522;14.950;2023-03-01T07:02:12;1.60;99.90
11764;DHT22;5939;56.522;14.950;2023-03-01T07:04:39;1.60;99.90
11764;DHT22;5939;56.522;14.950;2023-03-01T07:07:05;1.60;99.90
11764;DHT22;5939;56.522;14.950;2023-03-01T07:09:30;1.60;99.90
11764;DHT22;5939;56.522;14.950;2023-03-01T07:11:56;1.70;99.90
11764;DHT22;5939;56.522;14.950;2023-03-01T07:14:22;1.70;99.90
11764;DHT22;5939;56.522;14.950;2023-03-01T07:16:50;1.70;99.90
11764;DHT22;5939;56.522;14.950;2023-03-01T07:19:15;1.70;99.90
11764;DHT22;5939;56.522;14.950;2023-03-01T07:21:41;1.70;99.90
11764;DHT22;5939;56.522;14.950;2023-03-01T07:24:08;1.70;99.90
11764;DHT22;5939;56.522;14.950;2023-03-01T07:26:34;1.70;99.90
11764;DHT22;5939;56.522;14.950;2023-03-01T07:29:00;1.90;99.90
11764;DHT22;5939;56.522;14.950;2023-03-01T07:31:26;1.80;99.90
11764;DHT22;5939;56.522;14.950;2023-03-01T07:33:56;1.80;99.90
11764;DHT22;5939;56.522;14.950;2023-03-01T07:36:22;1.80;99.90
11764;DHT22;5939;56.522;14.950;2023-03-01T07:38:47;1.90;99.90
11764;DHT22;5939;56.522;14.950;2023-03-01T07:41:13;1.90;99.90
11764;DHT22;5939;56.522;14.950;2023-03-01T07:43:40;1.90;99.90
11764;DHT22;5939;56.522;14.950;2023-03-01T07:46:06;2.00;99.90
11764;DHT22;5939;56.522;14.950;2023-03-01T07:48:33;2.00;99.90
11764;DHT22;5939;56.522;14.950;2023-03-01T07:51:04;2.10;99.90
11764;DHT22;5939;56.522;14.950;2023-03-01T07:53:30;2.10;99.90
11764;DHT22;5939;56.522;14.950;2023-03-01T07:56:10;2.10;99.90
11764;DHT22;5939;56.522;14.950;2023-03-01T07:58:38;2.20;99.90
11764;DHT22;5939;56.522;14.950;2023-03-01T08:01:06;2.20;99.90
11764;DHT22;5939;56.522;14.950;2023-03-01T08:03:32;2.30;99.90
11764;DHT22;5939;56.522;14.950;2023-03-01T08:06:02;2.30;99.90
11764;DHT22;5939;56.522;14.950;2023-03-01T08:08:28;2.40;99.90
11764;DHT22;5939;56.522;14.950;2023-03-01T08:11:00;2.40;99.90
11764;DHT22;5939;56.522;14.950;2023-03-01T08:13:27;2.50;99.90
11764;DHT22;5939;56.522;14.950;2023-03-01T08:15:53;2.50;99.90
11764;DHT22;5939;56.522;14.950;2023-03-01T08:18:20;2.60;99.90
11764;DHT22;5939;56.522;14.950;2023-03-01T08:20:46;2.70;99.90
11764;DHT22;5939;56.522;14.950;2023-03-01T08:23:12;2.80;99.90
11764;DHT22;5939;56.522;14.950;2023-03-01T08:25:38;2.90;99.90
11764;DHT22;5939;56.522;14.950;2023-03-01T08:28:04;3.00;99.90
11764;DHT22;5939;56.522;14.950;2023-03-01T08:30:30;3.00;99.90
11764;DHT22;5939;56.522;14.950;2023-03-01T08:32:56;3.10;99.90
11764;DHT22;5939;56.522;14.950;2023-03-01T08:35:22;3.20;99.90
11764;DHT22;5939;56.522;14.950;2023-03-01T08:37:48;3.30;99.90
11764;DHT22;5939;56.522;14.950;2023-03-01T08:40:14;3.30;99.90
11764;DHT22;5939;56.522;14.950;2023-03-01T08:42:41;3.40;99.90
11764;DHT22;5939;56.522;14.950;2023-03-01T08:45:09;3.50;99.90
11764;DHT22;5939;56.522;14.950;2023-03-01T08:47:35;3.60;99.90
11764;DHT22;5939;56.522;14.950;2023-03-01T08:50:02;3.70;99.90
11764;DHT22;5939;56.522;14.950;2023-03-01T08:52:27;3.80;99.90
11764;DHT22;5939;56.522;14.950;2023-03-01T08:54:54;3.80;99.90
11764;DHT22;5939;56.522;14.950;2023-03-01T08:57:19;3.90;99.90
11764;DHT22;5939;56.522;14.950;2023-03-01T08:59:45;4.00;99.90
11764;DHT22;5939;56.522;14.950;2023-03-01T09:02:13;4.10;99.90
11764;DHT22;5939;56.522;14.950;2023-03-01T09:04:39;4.10;99.90
11764;DHT22;5939;56.522;14.950;2023-03-01T09:07:05;4.20;99.90
11764;DHT22;5939;56.522;14.950;2023-03-01T09:09:30;4.30;99.90
11764;DHT22;5939;56.522;14.950;2023-03-01T09:11:56;4.30;99.90
11764;DHT22;5939;56.522;14.950;2023-03-01T09:14:22;4.40;99.90
11764;DHT22;5939;56.522;14.950;2023-03-01T09:16:47;4.40;99.90
11764;DHT22;5939;56.522;14.950;2023-03-01T09:19:13;4.50;99.90
11764;DHT22;5939;56.522;14.950;2023-03-01T09:21:39;4.60;99.90
11764;DHT22;5939;56.522;14.950;2023-03-01T09:24:06;4.70;99.90
11764;DHT22;5939;56.522;14.950;2023-03-01T09:26:31;4.70;99.90
11764;DHT22;5939;56.522;14.950;2023-03-01T09:28:57;4.80;99.90
11764;DHT22;5939;56.522;14.950;2023-03-01T09:31:24;4.90;99.90
11764;DHT22;5939;56.522;14.950;2023-03-01T09:33:51;5.00;99.90
11764;DHT22;5939;56.522;14.950;2023-03-01T09:36:22;5.20;99.90
11764;DHT22;5939;56.522;14.950;2023-03-01T09:38:48;5.30;99.90
11764;DHT22;5939;56.522;14.950;2023-03-01T09:43:50;5.60;99.90
11764;DHT22;5939;56.522;14.950;2023-03-01T09:46:22;5.70;99.90
11764;DHT22;5939;56.522;14.950;2023-03-01T09:49:10;5.80;99.90
11764;DHT22;5939;56.522;14.950;2023-03-01T09:51:37;5.90;99.90
11764;DHT22;5939;56.522;14.950;2023-03-01T09:54:04;6.10;99.90
11764;DHT22;5939;56.522;14.950;2023-03-01T09:56:37;6.20;99.90
11764;DHT22;5939;56.522;14.950;2023-03-01T10:00:22;6.30;99.90
11764;DHT22;5939;56.522;14.950;2023-03-01T10:02:24;6.50;99.90
11764;DHT22;5939;56.522;14.950;2023-03-01T10:04:55;6.60;99.90
11764;DHT22;5939;56.522;14.950;2023-03-01T10:10:10;6.90;99.90
11764;DHT22;5939;56.522;14.950;2023-03-01T10:12:42;7.00;99.90
11764;DHT22;5939;56.522;14.950;2023-03-01T10:15:14;7.10;99.90
11764;DHT22;5939;56.522;14.950;2023-03-01T10:17:56;7.20;99.90
11764;DHT22;5939;56.522;14.950;2023-03-01T10:20:26;7.30;99.90
11764;DHT22;5939;56.522;14.950;2023-03-01T10:22:52;7.50;99.90
11764;DHT22;5939;56.522;14.950;2023-03-01T10:31:00;7.80;99.90
11764;DHT22;5939;56.522;14.950;2023-03-01T10:33:37;7.90;99.90
11764;DHT22;5939;56.522;14.950;2023-03-01T10:36:05;8.10;99.90
11764;DHT22;5939;56.522;14.950;2023-03-01T10:38:53;8.10;99.90
11764;DHT22;5939;56.522;14.950;2023-03-01T10:41:21;8.30;99.90
11764;DHT22;5939;56.522;14.950;2023-03-01T10:43:57;8.40;99.90
11764;DHT22;5939;56.522;14.950;2023-03-01T10:46:32;8.50;99.90
11764;DHT22;5939;56.522;14.950;2023-03-01T10:51:31;8.60;99.90
11764;DHT22;5939;56.522;14.950;2023-03-01T10:53:57;8.80;99.90
11764;DHT22;5939;56.522;14.950;2023-03-01T10:56:23;8.80;99.90
11764;DHT22;5939;56.522;14.950;2023-03-01T10:59:00;8.90;99.90
11764;DHT22;5939;56.522;14.950;2023-03-01T11:01:29;9.00;99.90
11764;DHT22;5939;56.522;14.950;2023-03-01T11:04:12;9.00;99.90
11764;DHT22;5939;56.522;14.950;2023-03-01T11:06:40;9.10;99.90
11764;DHT22;5939;56.522;14.950;2023-03-01T11:09:19;9.20;99.90
11764;DHT22;5939;56.522;14.950;2023-03-01T11:11:46;9.30;99.90
11764;DHT22;5939;56.522;14.950;2023-03-01T11:14:21;9.30;99.90
11764;DHT22;5939;56.522;14.950;2023-03-01T11:16:57;9.40;99.90
11764;DHT22;5939;56.522;14.950;2023-03-01T11:19:23;9.40;99.90
11764;DHT22;5939;56.522;14.950;2023-03-01T11:22:02;9.50;99.90
11764;DHT22;5939;56.522;14.950;2023-03-01T11:24:45;9.60;99.90
11764;DHT22;5939;56.522;14.950;2023-03-01T11:27:31;9.70;99.90
11764;DHT22;5939;56.522;14.950;2023-03-01T11:35:28;9.80;99.90
11764;DHT22;5939;56.522;14.950;2023-03-01T11:38:42;10.00;99.90
11764;DHT22;5939;56.522;14.950;2023-03-01T11:41:17;10.00;99.90
11764;DHT22;5939;56.522;14.950;2023-03-01T11:43:54;10.10;99.90
11764;DHT22;5939;56.522;14.950;2023-03-01T11:51:51;10.20;99.90
11764;DHT22;5939;56.522;14.950;2023-03-01T12:10:49;10.20;99.90
11764;DHT22;5939;56.522;14.950;2023-03-01T12:33:14;10.00;99.90
11764;DHT22;5939;56.522;14.950;2023-03-01T12:41:46;9.80;99.90
11764;DHT22;5939;56.522;14.950;2023-03-01T12:50:26;9.70;99.90
11764;DHT22;5939;56.522;14.950;2023-03-01T12:52:53;9.60;99.90
11764;DHT22;5939;56.522;14.950;2023-03-01T12:55:28;9.50;99.90
11764;DHT22;5939;56.522;14.950;2023-03-01T13:09:42;9.30;99.90
11764;DHT22;5939;56.522;14.950;2023-03-01T13:15:35;9.20;99.90
11764;DHT22;5939;56.522;14.950;2023-03-01T13:23:24;9.00;99.90
11764;DHT22;5939;56.522;14.950;2023-03-01T13:26:06;9.00;99.90
11764;DHT22;5939;56.522;14.950;2023-03-01T13:31:08;8.90;99.90
11764;DHT22;5939;56.522;14.950;2023-03-01T13:33:43;8.90;99.90
11764;DHT22;5939;56.522;14.950;2023-03-01T13:36:10;8.80;99.90
11764;DHT22;5939;56.522;14.950;2023-03-01T13:41:56;8.70;99.90
11764;DHT22;5939;56.522;14.950;2023-03-01T13:52:38;8.50;99.90
11764;DHT22;5939;56.522;14.950;2023-03-01T13:55:43;8.50;99.90
11764;DHT22;5939;56.522;14.950;2023-03-01T13:58:22;8.50;99.90
11764;DHT22;5939;56.522;14.950;2023-03-01T14:00:55;8.40;99.90
11764;DHT22;5939;56.522;14.950;2023-03-01T14:03:21;8.40;99.90
11764;DHT22;5939;56.522;14.950;2023-03-01T14:08:29;8.30;99.90
11764;DHT22;5939;56.522;14.950;2023-03-01T14:13:58;8.20;99.90
11764;DHT22;5939;56.522;14.950;2023-03-01T14:21:27;8.10;99.90
11764;DHT22;5939;56.522;14.950;2023-03-01T14:23:53;8.10;99.90
11764;DHT22;5939;56.522;14.950;2023-03-01T14:26:23;8.10;99.90
11764;DHT22;5939;56.522;14.950;2023-03-01T14:28:49;8.00;99.90
11764;DHT22;5939;56.522;14.950;2023-03-01T14:31:37;8.00;99.90
11764;DHT22;5939;56.522;14.950;2023-03-01T14:34:03;8.00;99.90
11764;DHT22;5939;56.522;14.950;2023-03-01T14:36:33;7.90;99.90
11764;DHT22;5939;56.522;14.950;2023-03-01T14:39:00;7.90;99.90
11764;DHT22;5939;56.522;14.950;2023-03-01T14:41:33;7.90;99.90
11764;DHT22;5939;56.522;14.950;2023-03-01T14:44:24;7.80;99.90
11764;DHT22;5939;56.522;14.950;2023-03-01T14:46:55;7.80;99.90
11764;DHT22;5939;56.522;14.950;2023-03-01T14:49:29;7.80;99.90
11764;DHT22;5939;56.522;14.950;2023-03-01T14:52:07;7.70;99.90
11764;DHT22;5939;56.522;14.950;2023-03-01T14:54:46;7.70;99.90
11764;DHT22;5939;56.522;14.950;2023-03-01T14:59:43;7.60;99.90
11764;DHT22;5939;56.522;14.950;2023-03-01T15:02:17;7.60;99.90
11764;DHT22;5939;56.522;14.950;2023-03-01T15:04:50;7.60;99.90
11764;DHT22;5939;56.522;14.950;2023-03-01T15:07:17;7.60;99.90
11764;DHT22;5939;56.522;14.950;2023-03-01T15:09:43;7.60;99.90
11764;DHT22;5939;56.522;14.950;2023-03-01T15:14:55;7.50;99.90
11764;DHT22;5939;56.522;14.950;2023-03-01T15:17:35;7.50;99.90
11764;DHT22;5939;56.522;14.950;2023-03-01T15:20:13;7.50;99.90
11764;DHT22;5939;56.522;14.950;2023-03-01T15:22:44;7.40;99.90
11764;DHT22;5939;56.522;14.950;2023-03-01T15:25:27;7.40;99.90
11764;DHT22;5939;56.522;14.950;2023-03-01T15:27:55;7.40;99.90
11764;DHT22;5939;56.522;14.950;2023-03-01T15:35:50;7.40;99.90
11764;DHT22;5939;56.522;14.950;2023-03-01T15:40:57;7.30;99.90
11764;DHT22;5939;56.522;14.950;2023-03-01T15:43:45;7.30;99.90
11764;DHT22;5939;56.522;14.950;2023-03-01T15:46:32;7.30;99.90
11764;DHT22;5939;56.522;14.950;2023-03-01T15:49:05;7.30;99.90
11764;DHT22;5939;56.522;14.950;2023-03-01T15:51:36;7.20;99.90
11764;DHT22;5939;56.522;14.950;2023-03-01T15:54:39;7.20;99.90
11764;DHT22;5939;56.522;14.950;2023-03-01T15:56:57;7.20;99.90
11764;DHT22;5939;56.522;14.950;2023-03-01T15:59:23;7.20;99.90
11764;DHT22;5939;56.522;14.950;2023-03-01T16:01:49;7.20;99.90
11764;DHT22;5939;56.522;14.950;2023-03-01T16:04:17;7.20;99.90
11764;DHT22;5939;56.522;14.950;2023-03-01T16:06:46;7.10;99.90
11764;DHT22;5939;56.522;14.950;2023-03-01T16:09:24;7.10;99.90
11764;DHT22;5939;56.522;14.950;2023-03-01T16:11:51;7.10;99.90
11764;DHT22;5939;56.522;14.950;2023-03-01T16:14:17;7.10;99.90
11764;DHT22;5939;56.522;14.950;2023-03-01T16:16:44;7.10;99.90
11764;DHT22;5939;56.522;14.950;2023-03-01T16:19:11;7.10;99.90
11764;DHT22;5939;56.522;14.950;2023-03-01T16:21:37;7.10;99.90
11764;DHT22;5939;56.522;14.950;2023-03-01T16:24:04;7.00;99.90
11764;DHT22;5939;56.522;14.950;2023-03-01T16:26:30;7.00;99.90
11764;DHT22;5939;56.522;14.950;2023-03-01T16:28:56;7.00;99.90
11764;DHT22;5939;56.522;14.950;2023-03-01T16:31:22;7.00;99.90
11764;DHT22;5939;56.522;14.950;2023-03-01T16:33:48;7.00;99.90
11764;DHT22;5939;56.522;14.950;2023-03-01T16:36:19;6.90;99.90
11764;DHT22;5939;56.522;14.950;2023-03-01T16:38:45;6.90;99.90
11764;DHT22;5939;56.522;14.950;2023-03-01T16:41:16;6.90;99.90
11764;DHT22;5939;56.522;14.950;2023-03-01T16:43:42;6.90;99.90
11764;DHT22;5939;56.522;14.950;2023-03-01T16:46:13;6.80;99.90
11764;DHT22;5939;56.522;14.950;2023-03-01T16:48:39;6.80;99.90
11764;DHT22;5939;56.522;14.950;2023-03-01T16:51:05;6.80;99.90
11764;DHT22;5939;56.522;14.950;2023-03-01T16:53:33;6.80;99.90
11764;DHT22;5939;56.522;14.950;2023-03-01T16:55:59;6.70;99.90
11764;DHT22;5939;56.522;14.950;2023-03-01T16:58:25;6.70;99.90
11764;DHT22;5939;56.522;14.950;2023-03-01T17:00:55;6.70;99.90
11764;DHT22;5939;56.522;14.950;2023-03-01T17:03:22;6.70;99.90
11764;DHT22;5939;56.522;14.950;2023-03-01T17:05:48;6.70;99.90
11764;DHT22;5939;56.522;14.950;2023-03-01T17:08:14;6.60;99.90
11764;DHT22;5939;56.522;14.950;2023-03-01T17:10:39;6.60;99.90
11764;DHT22;5939;56.522;14.950;2023-03-01T17:13:08;6.60;99.90
11764;DHT22;5939;56.522;14.950;2023-03-01T17:15:34;6.60;99.90
11764;DHT22;5939;56.522;14.950;2023-03-01T17:18:00;6.50;99.90
11764;DHT22;5939;56.522;14.950;2023-03-01T17:20:27;6.50;99.90
11764;DHT22;5939;56.522;14.950;2023-03-01T17:22:52;6.50;99.90
11764;DHT22;5939;56.522;14.950;2023-03-01T17:25:18;6.50;99.90
11764;DHT22;5939;56.522;14.950;2023-03-01T17:27:44;6.40;99.90
11764;DHT22;5939;56.522;14.950;2023-03-01T17:30:11;6.40;99.90
11764;DHT22;5939;56.522;14.950;2023-03-01T17:32:38;6.40;99.90
11764;DHT22;5939;56.522;14.950;2023-03-01T17:35:03;6.40;99.90
11764;DHT22;5939;56.522;14.950;2023-03-01T17:37:29;6.30;99.90
11764;DHT22;5939;56.522;14.950;2023-03-01T17:39:55;6.30;99.90
11764;DHT22;5939;56.522;14.950;2023-03-01T17:42:21;6.30;99.90
11764;DHT22;5939;56.522;14.950;2023-03-01T17:44:46;6.30;99.90
11764;DHT22;5939;56.522;14.950;2023-03-01T17:47:12;6.30;99.90
11764;DHT22;5939;56.522;14.950;2023-03-01T17:49:37;6.20;99.90
11764;DHT22;5939;56.522;14.950;2023-03-01T17:52:03;6.20;99.90
11764;DHT22;5939;56.522;14.950;2023-03-01T17:54:29;6.20;99.90
11764;DHT22;5939;56.522;14.950;2023-03-01T17:56:55;6.10;99.90
11764;DHT22;5939;56.522;14.950;2023-03-01T17:59:21;6.10;99.90
11764;DHT22;5939;56.522;14.950;2023-03-01T18:01:46;6.10;99.90
11764;DHT22;5939;56.522;14.950;2023-03-01T18:04:12;6.00;99.90
11764;DHT22;5939;56.522;14.950;2023-03-01T18:06:38;6.00;99.90
11764;DHT22;5939;56.522;14.950;2023-03-01T18:09:05;6.00;99.90
11764;DHT22;5939;56.522;14.950;2023-03-01T18:11:33;6.00;99.90
11764;DHT22;5939;56.522;14.950;2023-03-01T18:14:00;5.90;99.90
11764;DHT22;5939;56.522;14.950;2023-03-01T18:16:26;5.90;99.90
11764;DHT22;5939;56.522;14.950;2023-03-01T18:18:54;5.90;99.90
11764;DHT22;5939;56.522;14.950;2023-03-01T18:21:20;5.90;99.90
11764;DHT22;5939;56.522;14.950;2023-03-01T18:23:47;5.80;99.90